地図

経路データ

SID SEASON NUMBER BASIN SUBBASIN NAME ISO_TIME NATURE LAT LON WMO_WIND WMO_PRES WMO_AGENCY TRACK_TYPE DIST2LAND LANDFALL IFLAG USA_AGENCY USA_ATCF_ID USA_LAT USA_LON USA_RECORD USA_STATUS USA_WIND USA_PRES USA_SSHS USA_R34_NE USA_R34_SE USA_R34_SW USA_R34_NW USA_R50_NE USA_R50_SE USA_R50_SW USA_R50_NW USA_R64_NE USA_R64_SE USA_R64_SW USA_R64_NW USA_POCI USA_ROCI USA_RMW USA_EYE TOKYO_LAT TOKYO_LON TOKYO_GRADE TOKYO_WIND TOKYO_PRES TOKYO_R50_DIR TOKYO_R50_LONG TOKYO_R50_SHORT TOKYO_R30_DIR TOKYO_R30_LONG TOKYO_R30_SHORT TOKYO_LAND CMA_LAT CMA_LON CMA_CAT CMA_WIND CMA_PRES HKO_LAT HKO_LON HKO_CAT HKO_WIND HKO_PRES NEWDELHI_LAT NEWDELHI_LON NEWDELHI_GRADE NEWDELHI_WIND NEWDELHI_PRES NEWDELHI_CI NEWDELHI_DP NEWDELHI_POCI REUNION_LAT REUNION_LON REUNION_TYPE REUNION_WIND REUNION_PRES REUNION_TNUM REUNION_CI REUNION_RMW REUNION_R34_NE REUNION_R34_SE REUNION_R34_SW REUNION_R34_NW REUNION_R50_NE REUNION_R50_SE REUNION_R50_SW REUNION_R50_NW REUNION_R64_NE REUNION_R64_SE REUNION_R64_SW REUNION_R64_NW BOM_LAT BOM_LON BOM_TYPE BOM_WIND BOM_PRES BOM_TNUM BOM_CI BOM_RMW BOM_R34_NE BOM_R34_SE BOM_R34_SW BOM_R34_NW BOM_R50_NE BOM_R50_SE BOM_R50_SW BOM_R50_NW BOM_R64_NE BOM_R64_SE BOM_R64_SW BOM_R64_NW BOM_ROCI BOM_POCI BOM_EYE BOM_POS_METHOD BOM_PRES_METHOD NADI_LAT NADI_LON NADI_CAT NADI_WIND NADI_PRES WELLINGTON_LAT WELLINGTON_LON WELLINGTON_WIND WELLINGTON_PRES DS824_LAT DS824_LON DS824_STAGE DS824_WIND DS824_PRES TD9636_LAT TD9636_LON TD9636_STAGE TD9636_WIND TD9636_PRES TD9635_LAT TD9635_LON TD9635_WIND TD9635_PRES TD9635_ROCI NEUMANN_LAT NEUMANN_LON NEUMANN_CLASS NEUMANN_WIND NEUMANN_PRES MLC_LAT MLC_LON MLC_CLASS MLC_WIND MLC_PRES USA_GUST BOM_GUST BOM_GUST_PER REUNION_GUST REUNION_GUST_PER USA_SEAHGT USA_SEARAD_NE USA_SEARAD_SE USA_SEARAD_SW USA_SEARAD_NW STORM_SPEED STORM_DIR
1971136N10137 1971 47 WP MM NOT_NAMED 1971-05-16 00:00:00 TS 10.4000 136.800 main 1160 1160 __O___________ -1 10.4000 136.800 0 1007 5 17
1971136N10137 1971 47 WP MM NOT_NAMED 1971-05-16 03:00:00 TS 10.6475 136.877 main 1177 1177 __P___________ -1 10.6475 136.877 0 1006 5 11
1971136N10137 1971 47 WP MM NOT_NAMED 1971-05-16 06:00:00 TS 10.9000 136.900 main 1185 1179 __O___________ -1 10.9000 136.900 0 19 1006 5 356
1971136N10137 1971 47 WP MM NOT_NAMED 1971-05-16 09:00:00 TS 11.1575 136.830 main 1181 1173 __P___________ -1 11.1575 136.830 0 19 1006 5 338
1971136N10137 1971 47 WP MM NOT_NAMED 1971-05-16 12:00:00 TS 11.4000 136.700 main 1175 1167 __O___________ -1 11.4000 136.700 0 19 1006 5 330
1971136N10137 1971 47 WP MM NOT_NAMED 1971-05-16 15:00:00 TS 11.6075 136.565 main 1169 1150 __P___________ -1 11.6075 136.565 0 19 1006 5 324
1971136N10137 1971 47 WP MM NOT_NAMED 1971-05-16 18:00:00 TS 11.8000 136.400 main 1153 1137 __O___________ -1 11.8000 136.400 0 19 1006 5 319
1971136N10137 1971 47 WP MM NOT_NAMED 1971-05-16 21:00:00 TS 12.0000 136.215 main 1137 1119 __P___________ -1 12.0000 136.215 0 21 1005 6 316
1971136N10137 1971 47 WP MM NOT_NAMED 1971-05-17 00:00:00 TS 12.2000 136.000 main 1119 1099 __O___________ -1 12.2000 136.000 1 23 1005 6 311
1971136N10137 1971 47 WP MM NOT_NAMED 1971-05-17 03:00:00 TS 12.4000 135.750 main 1100 1071 __P___________ -1 12.4000 135.750 1 23 1005 6 309
1971136N10137 1971 47 WP MM NOT_NAMED 1971-05-17 06:00:00 TS 12.6000 135.500 main 1071 1051 __O___________ -1 12.6000 135.500 1 23 1005 6 311
1971136N10137 1971 47 WP MM NOT_NAMED 1971-05-17 09:00:00 TS 12.7849 135.300 main 1053 1034 __P___________ -1 12.7849 135.300 1 23 1005 6 316
1971136N10137 1971 47 WP MM NOT_NAMED 1971-05-17 12:00:00 TS 13.0000 135.100 main 1036 1020 __O___________ -1 13.0000 135.100 1 23 1005 7 320
1971136N10137 1971 47 WP MM NOT_NAMED 1971-05-17 15:00:00 TS 13.2850 134.865 main 1022 996 __P___________ -1 13.2850 134.865 1 23 1005 8 321
1971136N10137 1971 47 WP MM NOT_NAMED 1971-05-17 18:00:00 TS 13.6000 134.600 main 999 972 __O___________ -1 13.6000 134.600 1 23 1005 8 318
1971136N10137 1971 47 WP MM NOT_NAMED 1971-05-17 21:00:00 TS 13.8699 134.322 main 972 947 __P___________ -1 13.8699 134.322 1 26 1005 8 316
1971136N10137 1971 47 WP MM NOT_NAMED 1971-05-18 00:00:00 TS 14.2000 134.000 main 947 916 __O___________ -1 14.2000 134.000 1 29 1005 11 319
1971136N10137 1971 47 WP MM NOT_NAMED 1971-05-18 03:00:00 TS 14.6625 133.608 main 919 893 __P___________ -1 14.6625 133.608 1 26 1005 13 322
1971136N10137 1971 47 WP MM NOT_NAMED 1971-05-18 06:00:00 TS 15.2000 133.200 main 897 880 __O___________ -1 15.2000 133.200 1 23 1006 13 325
1971136N10137 1971 47 WP MM NOT_NAMED 1971-05-18 09:00:00 TS 15.7575 132.820 main 884 876 __P___________ -1 15.7575 132.820 1 21 1006 13 329
1971136N10137 1971 47 WP MM NOT_NAMED 1971-05-18 12:00:00 TS 16.3000 132.500 main 883 879 __O___________ -1 16.3000 132.500 0 19 1006 12 332
1971136N10137 1971 47 WP MM NOT_NAMED 1971-05-18 15:00:00 TS 16.7724 132.255 main 895 886 __P___________ -1 16.7724 132.255 0 19 1006 10 337
1971136N10137 1971 47 WP MM NOT_NAMED 1971-05-18 18:00:00 TS 17.2000 132.100 main 903 903 __O___________ -1 17.2000 132.100 0 19 1006 9 343
1971136N10137 1971 47 WP MM NOT_NAMED 1971-05-18 21:00:00 TS 17.6074 131.983 main 912 912 __P___________ -1 17.6074 131.983 0 19 1006 8 353
1971136N10137 1971 47 WP MM NOT_NAMED 1971-05-19 00:00:00 TS 18.0000 132.000 main 933 933 __O___________ -1 18.0000 132.000 0 19 1006 8 10
1971136N10137 1971 47 WP MM NOT_NAMED 1971-05-19 03:00:00 TS 18.4145 132.130 main 964 964 __P___________ -1 18.4145 132.130 0 1006 9 31
1971136N10137 1971 47 WP MM NOT_NAMED 1971-05-19 06:00:00 TS 18.8000 132.500 main 1023 1023 __O___________ -1 18.8000 132.500 0 1006 12 54
1971136N10137 1971 47 WP MM NOT_NAMED 1971-05-19 09:00:00 TS 19.1211 133.164 main 1103 1103 __P___________ -1 19.1211 133.164 0 1006 15 67
1971136N10137 1971 47 WP MM NOT_NAMED 1971-05-19 12:00:00 TS 19.4000 134.000 main 1193 __O___________ -1 19.4000 134.000 0 1007 17 71

デジタル台風データ・検索

IBTrACS Databaseについて

本データベースは、米国NOAAが公開する1842年以降の世界の熱帯低気圧のベストトラックデータアーカイブInternational Best Track Archive for Climate Stewardship (IBTrACS)を、ウェブで閲覧しやすい形式に変換したものです。

最終更新日:2021-12-03